Aviation Digital Data Service (ADDS)

Output produced by METARs form (0000 UTC 24 May 2022)
found at http://aviationweather.gov/metar/data/
 
Forecast for: FAPE (PORT ELIZABETH , ZA)
Text: TAF FAPE 232200Z 2400/2424 VRB03KT CAVOK TX22/2412Z TN11/2403Z
Forecast period: 0000 to 1600 UTC 24 May 2022
Forecast type: FROM: standard forecast or significant change
Winds: variable direction winds at 3 MPH (3 knots; 1.5 m/s)
Visibility: 6 or more miles (10+ km)
Ceiling: unknown
Clouds: missing
Weather: no significant weather forecast for this period
Text: PROB30
Forecast period: 0000 to 0600 UTC 24 May 2022
Forecast type: TEMPORARY: The following changes expected for less than half the time period
Visibility: missing
Ceiling: 500 feet AGL
Clouds: broken clouds at 500 feet AGL
Weather: no significant weather forecast for this period
Text: TEMPO 2400/2406 BKN005
Forecast period: 1600 UTC 24 May 2022 to 0000 UTC 25 May 2022
Forecast type: BECOMING: Conditions expected to become as follows by 1800 UTC 24 May 2022
Winds: variable direction winds at 3 MPH (3 knots; 1.5 m/s)
Visibility: 6 or more miles (10+ km)
Ceiling: 1500 feet AGL
Clouds: broken clouds at 1500 feet AGL
Weather: no significant weather forecast for this period